createdAt,value
2022-09-09T00:03:12.002Z,21.20
2022-09-09T00:08:21.580Z,21.20
2022-09-09T00:13:31.557Z,21.20
2022-09-09T00:23:54.483Z,21.10
2022-09-09T00:29:20.481Z,21.10
2022-09-09T00:34:25.832Z,21.10
2022-09-09T01:06:05.588Z,20.90
2022-09-09T01:11:17.474Z,20.90
2022-09-09T01:16:21.391Z,20.90
2022-09-09T01:21:42.987Z,20.90
2022-09-09T01:26:47.613Z,20.90
2022-09-09T01:32:02.131Z,20.90
2022-09-09T01:37:10.262Z,20.90
2022-09-09T01:42:17.197Z,20.80
2022-09-09T01:47:20.480Z,20.90
2022-09-09T01:52:44.807Z,20.90
2022-09-09T02:03:26.355Z,20.80
2022-09-09T02:08:44.579Z,20.80
2022-09-09T02:13:50.373Z,20.80
2022-09-09T02:24:10.859Z,20.80
2022-09-09T02:29:35.356Z,20.70
2022-09-09T02:34:43.231Z,20.70
2022-09-09T02:39:45.675Z,20.70
2022-09-09T02:44:52.060Z,20.70
2022-09-09T02:55:19.226Z,20.70
2022-09-09T03:00:25.970Z,20.60
2022-09-09T03:05:29.850Z,20.70
2022-09-09T03:10:33.091Z,20.60
2022-09-09T03:15:36.254Z,20.60
2022-09-09T03:20:38.555Z,20.60
2022-09-09T03:25:40.924Z,20.60
2022-09-09T03:30:43.258Z,20.60
2022-09-09T03:35:49.865Z,20.50
2022-09-09T03:40:58.271Z,20.50
2022-09-09T03:46:01.171Z,20.50
2022-09-09T03:51:05.078Z,20.40
2022-09-09T03:56:09.287Z,20.40
2022-09-09T04:01:14.919Z,20.40
2022-09-09T04:06:19.340Z,20.40
2022-09-09T04:11:23.253Z,20.40
2022-09-09T04:16:28.802Z,20.40
2022-09-09T04:21:32.095Z,20.50
2022-09-09T04:26:37.675Z,20.50
2022-09-09T04:31:43.148Z,20.50
2022-09-09T04:36:46.867Z,20.60
2022-09-09T04:41:49.512Z,20.70
2022-09-09T04:46:51.864Z,20.70
2022-09-09T04:51:54.203Z,20.80
2022-09-09T04:56:56.571Z,20.90
2022-09-09T05:01:58.903Z,21.00
2022-09-09T05:07:01.335Z,21.00
2022-09-09T05:12:04.136Z,21.20
2022-09-09T05:17:11.051Z,21.20
2022-09-09T05:22:21.379Z,21.20
2022-09-09T05:27:24.920Z,21.40
2022-09-09T05:32:27.819Z,21.20
2022-09-09T05:37:31.856Z,20.90
2022-09-09T05:42:34.893Z,21.10
2022-09-09T05:47:38.438Z,21.10
2022-09-09T05:52:45.782Z,21.60
2022-09-09T05:57:52.927Z,21.40
2022-09-09T06:02:56.097Z,21.60
2022-09-09T06:07:58.638Z,21.50
2022-09-09T06:13:01.478Z,21.60
2022-09-09T06:18:04.483Z,21.80
2022-09-09T06:23:07.143Z,21.90
2022-09-09T06:28:09.853Z,22.30
2022-09-09T06:33:12.227Z,23.50
2022-09-09T06:38:14.616Z,25.00
2022-09-09T06:43:17.139Z,25.70
2022-09-09T06:48:26.925Z,27.90
2022-09-09T06:53:30.871Z,31.30
2022-09-09T06:58:33.904Z,33.10
2022-09-09T07:03:36.984Z,33.80
2022-09-09T07:08:39.286Z,34.30
2022-09-09T07:13:43.176Z,35.70
2022-09-09T07:18:46.010Z,34.70
2022-09-09T07:23:48.444Z,35.70
2022-09-09T07:28:51.055Z,36.80
2022-09-09T07:33:53.587Z,36.50
2022-09-09T07:38:58.767Z,35.90
2022-09-09T07:44:07.769Z,36.10
2022-09-09T07:49:11.930Z,34.40
2022-09-09T07:54:17.007Z,32.10
2022-09-09T07:59:20.935Z,30.80
2022-09-09T08:04:27.252Z,29.70
2022-09-09T08:09:33.301Z,28.80
2022-09-09T08:14:43.217Z,28.10
2022-09-09T08:19:45.711Z,28.00
2022-09-09T08:24:53.254Z,27.60
2022-09-09T08:29:56.801Z,27.50
2022-09-09T08:35:01.059Z,27.20
2022-09-09T08:40:05.229Z,26.70
2022-09-09T08:50:44.371Z,26.40
2022-09-09T09:11:38.695Z,26.10
2022-09-09T09:22:18.818Z,24.80
2022-09-09T09:32:37.516Z,23.90
2022-09-09T09:43:24.931Z,23.70
2022-09-09T09:48:29.010Z,23.60
2022-09-09T09:53:34.458Z,23.70
2022-09-09T09:58:51.554Z,23.70
2022-09-09T10:04:03.391Z,23.50
2022-09-09T10:09:25.933Z,23.40
2022-09-09T10:19:38.835Z,22.90
2022-09-09T10:30:34.784Z,23.10
2022-09-09T10:35:50.820Z,22.80
2022-09-09T10:56:35.849Z,22.60
2022-09-09T11:01:46.187Z,22.90
2022-09-09T11:06:55.374Z,23.10
2022-09-09T11:11:59.396Z,22.80
2022-09-09T11:17:06.780Z,22.80
2022-09-09T11:22:37.682Z,23.00
2022-09-09T11:38:46.910Z,22.70
2022-09-09T11:43:53.189Z,22.80
2022-09-09T11:49:01.521Z,22.70
2022-09-09T11:54:33.122Z,22.90
2022-09-09T11:59:36.679Z,22.70
2022-09-09T12:04:43.314Z,22.90
2022-09-09T12:26:02.454Z,22.90
2022-09-09T12:36:21.919Z,23.60
2022-09-09T12:41:26.237Z,23.10
2022-09-09T12:46:39.328Z,23.00
2022-09-09T12:51:44.934Z,22.90
2022-09-09T12:56:49.671Z,23.20
2022-09-09T13:02:00.176Z,23.10
2022-09-09T13:07:11.880Z,23.40
2022-09-09T13:12:19.667Z,23.50
2022-09-09T13:17:26.823Z,23.20
2022-09-09T13:27:53.966Z,23.00
2022-09-09T13:38:16.572Z,22.70
2022-09-09T13:43:24.077Z,22.50
2022-09-09T13:48:27.068Z,22.30
2022-09-09T13:53:29.749Z,22.30
2022-09-09T13:58:32.035Z,22.30
2022-09-09T14:03:34.935Z,22.30
2022-09-09T14:08:38.518Z,22.00
2022-09-09T14:13:41.640Z,22.00
2022-09-09T14:18:45.023Z,22.20
2022-09-09T14:23:47.418Z,22.30
2022-09-09T14:28:55.172Z,21.90
2022-09-09T14:33:58.155Z,21.90
2022-09-09T14:39:00.574Z,21.90
2022-09-09T14:44:03.027Z,21.90
2022-09-09T14:49:05.734Z,21.80
2022-09-09T14:54:07.977Z,21.70
2022-09-09T14:59:10.243Z,21.50
2022-09-09T15:04:15.859Z,21.40
2022-09-09T15:09:18.145Z,21.40
2022-09-09T15:14:22.536Z,21.10
2022-09-09T15:19:27.773Z,21.20
2022-09-09T15:24:30.002Z,21.20
2022-09-09T15:29:32.199Z,21.00
2022-09-09T15:34:34.567Z,21.10
2022-09-09T15:39:38.911Z,21.00
2022-09-09T15:44:43.343Z,20.90
2022-09-09T15:49:45.835Z,21.10
2022-09-09T15:54:48.111Z,21.10
2022-09-09T15:59:50.333Z,21.20
2022-09-09T16:04:52.558Z,21.00
2022-09-09T16:09:55.362Z,20.90
2022-09-09T16:14:57.658Z,20.80
2022-09-09T16:19:59.854Z,20.70
2022-09-09T16:25:02.131Z,20.50
2022-09-09T16:30:05.510Z,20.50
2022-09-09T16:35:08.051Z,20.40
2022-09-09T16:40:10.466Z,20.60
2022-09-09T16:45:13.890Z,20.60
2022-09-09T16:50:16.139Z,20.50
2022-09-09T16:55:19.084Z,20.60
2022-09-09T17:00:21.350Z,20.50
2022-09-09T17:05:24.296Z,20.70
2022-09-09T17:10:26.867Z,20.50
2022-09-09T17:15:29.137Z,20.40
2022-09-09T17:20:45.726Z,20.30
2022-09-09T17:25:58.248Z,20.30
2022-09-09T17:31:02.877Z,20.30
2022-09-09T17:36:12.516Z,20.50
2022-09-09T17:46:32.597Z,20.60
2022-09-09T17:51:36.225Z,20.60
2022-09-09T17:56:39.614Z,20.70
2022-09-09T18:01:46.049Z,20.60
2022-09-09T18:06:51.244Z,20.60
2022-09-09T18:11:56.504Z,20.90
2022-09-09T18:17:00.808Z,21.00
2022-09-09T18:22:05.582Z,21.10
2022-09-09T18:27:07.956Z,21.10
2022-09-09T18:32:10.203Z,21.20
2022-09-09T18:37:13.387Z,20.90
2022-09-09T18:42:15.897Z,20.70
2022-09-09T18:47:18.259Z,21.00
2022-09-09T18:52:20.451Z,21.00
2022-09-09T18:57:22.651Z,21.10
2022-09-09T19:02:24.911Z,21.10
2022-09-09T19:07:27.132Z,20.90
2022-09-09T19:12:29.738Z,21.10
2022-09-09T19:17:34.427Z,20.80
2022-09-09T19:22:36.665Z,20.90
2022-09-09T19:27:38.916Z,21.10
2022-09-09T19:32:53.328Z,20.80
2022-09-09T19:37:59.210Z,20.80
2022-09-09T19:43:01.861Z,21.00
2022-09-09T19:48:04.199Z,20.80
2022-09-09T19:53:06.863Z,20.90
2022-09-09T19:58:09.052Z,20.90
2022-09-09T20:03:19.029Z,21.10
2022-09-09T20:08:22.004Z,21.20
2022-09-09T20:13:24.418Z,20.90
2022-09-09T20:18:31.183Z,21.10
2022-09-09T20:23:34.341Z,21.00
2022-09-09T20:28:38.569Z,21.20
2022-09-09T20:33:42.411Z,21.20
2022-09-09T20:38:47.061Z,21.30
2022-09-09T20:43:52.278Z,21.50
2022-09-09T20:49:00.814Z,21.30
2022-09-09T20:54:10.109Z,21.20
2022-09-09T20:59:16.088Z,21.20
2022-09-09T21:04:20.211Z,21.00
2022-09-09T21:09:24.641Z,21.00
2022-09-09T21:14:27.542Z,20.80
2022-09-09T21:19:29.802Z,20.90
2022-09-09T21:24:32.123Z,21.10
2022-09-09T21:29:34.410Z,21.20
2022-09-09T21:34:36.638Z,21.20
2022-09-09T21:39:39.080Z,21.20
2022-09-09T21:44:41.293Z,21.00
2022-09-09T21:49:43.486Z,21.20
2022-09-09T21:54:45.788Z,21.30
2022-09-09T21:59:48.040Z,21.30
2022-09-09T22:04:52.183Z,21.30
2022-09-09T22:09:54.501Z,21.00
2022-09-09T22:14:56.773Z,20.80
2022-09-09T22:19:59.702Z,20.80
2022-09-09T22:25:01.947Z,21.00
2022-09-09T22:30:04.490Z,20.80
2022-09-09T22:35:09.090Z,20.90
2022-09-09T22:40:14.322Z,20.90
2022-09-09T22:45:16.918Z,21.00
2022-09-09T22:50:20.323Z,20.80
2022-09-09T22:55:22.618Z,20.70
2022-09-09T23:00:25.496Z,20.70
2022-09-09T23:05:27.937Z,20.60
2022-09-09T23:10:33.502Z,20.80
2022-09-09T23:15:37.182Z,20.70
2022-09-09T23:20:39.396Z,20.80
2022-09-09T23:25:41.604Z,20.70
2022-09-09T23:30:43.815Z,20.60
2022-09-09T23:35:46.151Z,20.90
2022-09-09T23:40:48.401Z,20.80
2022-09-09T23:45:51.158Z,21.10
2022-09-09T23:50:53.586Z,21.00
2022-09-09T23:55:55.874Z,21.10
